sensor_id;sensor_type;location;lat;lon;timestamp;temperature;humidity
26954;DHT22;14508;50.924;11.600;2022-09-12T00:00:27;14.20;99.90
26954;DHT22;14508;50.924;11.600;2022-09-12T00:02:56;14.20;99.90
26954;DHT22;14508;50.924;11.600;2022-09-12T00:05:24;14.20;99.90
26954;DHT22;14508;50.924;11.600;2022-09-12T00:07:52;14.20;99.90
26954;DHT22;14508;50.924;11.600;2022-09-12T00:10:19;14.20;99.90
26954;DHT22;14508;50.924;11.600;2022-09-12T00:12:47;14.30;99.90
26954;DHT22;14508;50.924;11.600;2022-09-12T00:15:14;14.30;99.90
26954;DHT22;14508;50.924;11.600;2022-09-12T00:17:40;14.20;99.90
26954;DHT22;14508;50.924;11.600;2022-09-12T00:20:08;14.20;99.90
26954;DHT22;14508;50.924;11.600;2022-09-12T00:22:36;14.30;99.90
26954;DHT22;14508;50.924;11.600;2022-09-12T00:25:04;14.30;99.90
26954;DHT22;14508;50.924;11.600;2022-09-12T00:27:31;14.20;99.90
26954;DHT22;14508;50.924;11.600;2022-09-12T00:29:58;14.20;99.90
26954;DHT22;14508;50.924;11.600;2022-09-12T00:32:25;14.20;99.90
26954;DHT22;14508;50.924;11.600;2022-09-12T00:34:52;14.20;99.90
26954;DHT22;14508;50.924;11.600;2022-09-12T00:37:19;14.10;99.90
26954;DHT22;14508;50.924;11.600;2022-09-12T00:39:45;14.10;99.90
26954;DHT22;14508;50.924;11.600;2022-09-12T00:42:12;14.10;99.90
26954;DHT22;14508;50.924;11.600;2022-09-12T00:44:43;14.10;99.90
26954;DHT22;14508;50.924;11.600;2022-09-12T00:47:15;14.10;99.90
26954;DHT22;14508;50.924;11.600;2022-09-12T00:49:46;14.10;99.90
26954;DHT22;14508;50.924;11.600;2022-09-12T00:52:15;14.00;99.90
26954;DHT22;14508;50.924;11.600;2022-09-12T00:54:49;14.00;99.90
26954;DHT22;14508;50.924;11.600;2022-09-12T00:57:20;13.90;99.90
26954;DHT22;14508;50.924;11.600;2022-09-12T00:59:52;13.90;99.90
26954;DHT22;14508;50.924;11.600;2022-09-12T01:02:22;13.90;99.90
26954;DHT22;14508;50.924;11.600;2022-09-12T01:04:49;13.90;99.90
26954;DHT22;14508;50.924;11.600;2022-09-12T01:07:16;13.80;99.90
26954;DHT22;14508;50.924;11.600;2022-09-12T01:09:44;13.80;99.90
26954;DHT22;14508;50.924;11.600;2022-09-12T01:12:13;13.80;99.90
26954;DHT22;14508;50.924;11.600;2022-09-12T01:14:40;13.70;99.90
26954;DHT22;14508;50.924;11.600;2022-09-12T01:17:11;13.70;99.90
26954;DHT22;14508;50.924;11.600;2022-09-12T01:20:07;13.70;99.90
26954;DHT22;14508;50.924;11.600;2022-09-12T01:22:55;13.70;99.90
26954;DHT22;14508;50.924;11.600;2022-09-12T01:25:30;13.70;99.90
26954;DHT22;14508;50.924;11.600;2022-09-12T01:28:18;13.70;99.90
26954;DHT22;14508;50.924;11.600;2022-09-12T01:30:54;13.70;99.90
26954;DHT22;14508;50.924;11.600;2022-09-12T01:33:33;13.60;99.90
26954;DHT22;14508;50.924;11.600;2022-09-12T01:36:17;13.60;99.90
26954;DHT22;14508;50.924;11.600;2022-09-12T01:38:47;13.60;99.90
26954;DHT22;14508;50.924;11.600;2022-09-12T01:41:23;13.60;99.90
26954;DHT22;14508;50.924;11.600;2022-09-12T01:43:59;13.60;99.90
26954;DHT22;14508;50.924;11.600;2022-09-12T01:46:31;13.60;99.90
26954;DHT22;14508;50.924;11.600;2022-09-12T01:49:05;13.60;99.90
26954;DHT22;14508;50.924;11.600;2022-09-12T01:51:36;13.50;99.90
26954;DHT22;14508;50.924;11.600;2022-09-12T01:54:07;13.50;99.90
26954;DHT22;14508;50.924;11.600;2022-09-12T01:56:37;13.60;99.90
26954;DHT22;14508;50.924;11.600;2022-09-12T01:59:09;13.50;99.90
26954;DHT22;14508;50.924;11.600;2022-09-12T02:01:43;13.50;99.90
26954;DHT22;14508;50.924;11.600;2022-09-12T02:04:14;13.50;99.90
26954;DHT22;14508;50.924;11.600;2022-09-12T02:06:47;13.50;99.90
26954;DHT22;14508;50.924;11.600;2022-09-12T02:09:18;13.40;99.90
26954;DHT22;14508;50.924;11.600;2022-09-12T02:11:46;13.40;99.90
26954;DHT22;14508;50.924;11.600;2022-09-12T02:14:20;13.40;99.90
26954;DHT22;14508;50.924;11.600;2022-09-12T02:16:52;13.40;99.90
26954;DHT22;14508;50.924;11.600;2022-09-12T02:19:23;13.40;99.90
26954;DHT22;14508;50.924;11.600;2022-09-12T02:21:53;13.40;99.90
26954;DHT22;14508;50.924;11.600;2022-09-12T02:24:21;13.40;99.90
26954;DHT22;14508;50.924;11.600;2022-09-12T02:26:54;13.40;99.90
26954;DHT22;14508;50.924;11.600;2022-09-12T02:29:22;13.40;99.90
26954;DHT22;14508;50.924;11.600;2022-09-12T02:31:54;13.40;99.90
26954;DHT22;14508;50.924;11.600;2022-09-12T02:34:31;13.40;99.90
26954;DHT22;14508;50.924;11.600;2022-09-12T02:37:05;13.30;99.90
26954;DHT22;14508;50.924;11.600;2022-09-12T02:39:33;13.30;99.90
26954;DHT22;14508;50.924;11.600;2022-09-12T02:42:01;13.30;99.90
26954;DHT22;14508;50.924;11.600;2022-09-12T02:44:29;13.30;99.90
26954;DHT22;14508;50.924;11.600;2022-09-12T02:47:03;13.30;99.90
26954;DHT22;14508;50.924;11.600;2022-09-12T02:49:31;13.30;99.90
26954;DHT22;14508;50.924;11.600;2022-09-12T02:51:58;13.30;99.90
26954;DHT22;14508;50.924;11.600;2022-09-12T02:54:27;13.30;99.90
26954;DHT22;14508;50.924;11.600;2022-09-12T02:56:54;13.30;99.90
26954;DHT22;14508;50.924;11.600;2022-09-12T02:59:22;13.20;99.90
26954;DHT22;14508;50.924;11.600;2022-09-12T03:02:03;13.20;99.90
26954;DHT22;14508;50.924;11.600;2022-09-12T03:04:48;13.10;99.90
26954;DHT22;14508;50.924;11.600;2022-09-12T03:11:19;13.10;99.90
26954;DHT22;14508;50.924;11.600;2022-09-12T03:13:54;13.10;99.90
26954;DHT22;14508;50.924;11.600;2022-09-12T03:16:27;13.20;99.90
26954;DHT22;14508;50.924;11.600;2022-09-12T03:19:02;13.20;99.90
26954;DHT22;14508;50.924;11.600;2022-09-12T03:21:36;13.20;99.90
26954;DHT22;14508;50.924;11.600;2022-09-12T03:24:11;13.20;99.90
26954;DHT22;14508;50.924;11.600;2022-09-12T03:26:43;13.20;99.90
26954;DHT22;14508;50.924;11.600;2022-09-12T03:29:12;13.20;99.90
26954;DHT22;14508;50.924;11.600;2022-09-12T03:31:48;13.20;99.90
26954;DHT22;14508;50.924;11.600;2022-09-12T03:34:17;13.20;99.90
26954;DHT22;14508;50.924;11.600;2022-09-12T03:36:43;13.10;99.90
26954;DHT22;14508;50.924;11.600;2022-09-12T03:39:10;13.10;99.90
26954;DHT22;14508;50.924;11.600;2022-09-12T03:41:37;13.10;99.90
26954;DHT22;14508;50.924;11.600;2022-09-12T03:44:04;13.10;99.90
26954;DHT22;14508;50.924;11.600;2022-09-12T03:46:31;13.10;99.90
26954;DHT22;14508;50.924;11.600;2022-09-12T03:48:58;13.10;99.90
26954;DHT22;14508;50.924;11.600;2022-09-12T03:51:26;13.10;99.90
26954;DHT22;14508;50.924;11.600;2022-09-12T03:53:53;13.10;99.90
26954;DHT22;14508;50.924;11.600;2022-09-12T03:56:20;13.00;99.90
26954;DHT22;14508;50.924;11.600;2022-09-12T03:58:46;13.00;99.90
26954;DHT22;14508;50.924;11.600;2022-09-12T04:01:15;13.00;99.90
26954;DHT22;14508;50.924;11.600;2022-09-12T04:03:43;13.10;99.90
26954;DHT22;14508;50.924;11.600;2022-09-12T04:06:11;13.10;99.90
26954;DHT22;14508;50.924;11.600;2022-09-12T04:08:41;13.10;99.90
26954;DHT22;14508;50.924;11.600;2022-09-12T04:11:10;13.00;99.90
26954;DHT22;14508;50.924;11.600;2022-09-12T04:13:39;13.00;99.90
26954;DHT22;14508;50.924;11.600;2022-09-12T04:16:07;13.00;99.90
26954;DHT22;14508;50.924;11.600;2022-09-12T04:18:33;13.00;99.90
26954;DHT22;14508;50.924;11.600;2022-09-12T04:21:02;13.00;99.90
26954;DHT22;14508;50.924;11.600;2022-09-12T04:23:29;13.00;99.90
26954;DHT22;14508;50.924;11.600;2022-09-12T04:25:59;13.00;99.90
26954;DHT22;14508;50.924;11.600;2022-09-12T04:28:26;13.00;99.90
26954;DHT22;14508;50.924;11.600;2022-09-12T04:30:54;13.00;99.90
26954;DHT22;14508;50.924;11.600;2022-09-12T04:33:23;13.00;99.90
26954;DHT22;14508;50.924;11.600;2022-09-12T04:35:49;12.90;99.90
26954;DHT22;14508;50.924;11.600;2022-09-12T04:38:16;12.90;99.90
26954;DHT22;14508;50.924;11.600;2022-09-12T04:40:43;12.90;99.90
26954;DHT22;14508;50.924;11.600;2022-09-12T04:43:11;12.90;99.90
26954;DHT22;14508;50.924;11.600;2022-09-12T04:45:37;12.90;99.90
26954;DHT22;14508;50.924;11.600;2022-09-12T04:48:04;12.80;99.90
26954;DHT22;14508;50.924;11.600;2022-09-12T04:50:31;12.80;99.90
26954;DHT22;14508;50.924;11.600;2022-09-12T04:52:57;12.80;99.90
26954;DHT22;14508;50.924;11.600;2022-09-12T04:55:24;12.90;99.90
26954;DHT22;14508;50.924;11.600;2022-09-12T04:57:51;12.90;99.90
26954;DHT22;14508;50.924;11.600;2022-09-12T05:00:19;12.90;99.90
26954;DHT22;14508;50.924;11.600;2022-09-12T05:02:46;12.90;99.90
26954;DHT22;14508;50.924;11.600;2022-09-12T05:05:13;12.90;99.90
26954;DHT22;14508;50.924;11.600;2022-09-12T05:07:39;12.90;99.90
26954;DHT22;14508;50.924;11.600;2022-09-12T05:10:07;12.90;99.90
26954;DHT22;14508;50.924;11.600;2022-09-12T05:12:34;13.00;99.90
26954;DHT22;14508;50.924;11.600;2022-09-12T05:15:02;13.00;99.90
26954;DHT22;14508;50.924;11.600;2022-09-12T05:17:30;12.90;99.90
26954;DHT22;14508;50.924;11.600;2022-09-12T05:19:57;12.90;99.90
26954;DHT22;14508;50.924;11.600;2022-09-12T05:22:25;13.00;99.90
26954;DHT22;14508;50.924;11.600;2022-09-12T05:24:51;12.90;99.90
26954;DHT22;14508;50.924;11.600;2022-09-12T05:27:18;13.00;99.90
26954;DHT22;14508;50.924;11.600;2022-09-12T05:29:45;12.90;99.90
26954;DHT22;14508;50.924;11.600;2022-09-12T05:32:12;13.00;99.90
26954;DHT22;14508;50.924;11.600;2022-09-12T05:34:40;13.00;99.90
26954;DHT22;14508;50.924;11.600;2022-09-12T05:37:07;13.00;99.90
26954;DHT22;14508;50.924;11.600;2022-09-12T05:39:33;13.00;99.90
26954;DHT22;14508;50.924;11.600;2022-09-12T05:42:00;13.10;99.90
26954;DHT22;14508;50.924;11.600;2022-09-12T05:44:28;13.10;99.90
26954;DHT22;14508;50.924;11.600;2022-09-12T05:46:54;13.10;99.90
26954;DHT22;14508;50.924;11.600;2022-09-12T05:49:21;13.10;99.90
26954;DHT22;14508;50.924;11.600;2022-09-12T05:51:50;13.10;99.90
26954;DHT22;14508;50.924;11.600;2022-09-12T05:54:18;13.20;99.90
26954;DHT22;14508;50.924;11.600;2022-09-12T05:56:46;13.20;99.90
26954;DHT22;14508;50.924;11.600;2022-09-12T05:59:15;13.20;99.90
26954;DHT22;14508;50.924;11.600;2022-09-12T06:01:43;13.20;99.90
26954;DHT22;14508;50.924;11.600;2022-09-12T06:04:10;13.20;99.90
26954;DHT22;14508;50.924;11.600;2022-09-12T06:06:38;13.30;99.90
26954;DHT22;14508;50.924;11.600;2022-09-12T06:09:07;13.30;99.90
26954;DHT22;14508;50.924;11.600;2022-09-12T06:11:36;13.30;99.90
26954;DHT22;14508;50.924;11.600;2022-09-12T06:14:05;13.40;99.90
26954;DHT22;14508;50.924;11.600;2022-09-12T06:16:33;13.40;99.90
26954;DHT22;14508;50.924;11.600;2022-09-12T06:19:01;13.40;99.90
26954;DHT22;14508;50.924;11.600;2022-09-12T06:21:29;13.40;99.90
26954;DHT22;14508;50.924;11.600;2022-09-12T06:23:57;13.40;99.90
26954;DHT22;14508;50.924;11.600;2022-09-12T06:26:26;13.40;99.90
26954;DHT22;14508;50.924;11.600;2022-09-12T06:28:56;13.40;99.90
26954;DHT22;14508;50.924;11.600;2022-09-12T06:31:24;13.30;99.90
26954;DHT22;14508;50.924;11.600;2022-09-12T06:33:53;13.30;99.90
26954;DHT22;14508;50.924;11.600;2022-09-12T06:36:22;13.40;99.90
26954;DHT22;14508;50.924;11.600;2022-09-12T06:38:53;13.40;99.90
26954;DHT22;14508;50.924;11.600;2022-09-12T06:41:20;13.50;99.90
26954;DHT22;14508;50.924;11.600;2022-09-12T06:43:48;13.50;99.90
26954;DHT22;14508;50.924;11.600;2022-09-12T06:46:15;13.60;99.90
26954;DHT22;14508;50.924;11.600;2022-09-12T06:48:43;13.60;99.90
26954;DHT22;14508;50.924;11.600;2022-09-12T06:51:12;13.70;99.90
26954;DHT22;14508;50.924;11.600;2022-09-12T06:53:39;13.80;99.90
26954;DHT22;14508;50.924;11.600;2022-09-12T06:56:09;13.80;99.90
26954;DHT22;14508;50.924;11.600;2022-09-12T06:58:36;13.90;99.90
26954;DHT22;14508;50.924;11.600;2022-09-12T07:01:06;13.80;99.90
26954;DHT22;14508;50.924;11.600;2022-09-12T07:03:34;13.80;99.90
26954;DHT22;14508;50.924;11.600;2022-09-12T07:06:02;13.80;99.90
26954;DHT22;14508;50.924;11.600;2022-09-12T07:08:30;13.70;99.90
26954;DHT22;14508;50.924;11.600;2022-09-12T07:10:57;13.80;99.90
26954;DHT22;14508;50.924;11.600;2022-09-12T07:13:25;13.90;99.90
26954;DHT22;14508;50.924;11.600;2022-09-12T07:15:53;13.90;99.90
26954;DHT22;14508;50.924;11.600;2022-09-12T07:18:21;14.00;99.90
26954;DHT22;14508;50.924;11.600;2022-09-12T07:20:48;14.00;99.90
26954;DHT22;14508;50.924;11.600;2022-09-12T07:23:15;14.10;99.90
26954;DHT22;14508;50.924;11.600;2022-09-12T07:25:42;14.20;99.90
26954;DHT22;14508;50.924;11.600;2022-09-12T07:28:08;14.20;99.90
26954;DHT22;14508;50.924;11.600;2022-09-12T07:30:35;14.20;99.90
26954;DHT22;14508;50.924;11.600;2022-09-12T07:33:03;14.20;99.90
26954;DHT22;14508;50.924;11.600;2022-09-12T07:35:32;14.20;99.90
26954;DHT22;14508;50.924;11.600;2022-09-12T07:37:59;14.20;99.90
26954;DHT22;14508;50.924;11.600;2022-09-12T07:40:26;14.20;99.90
26954;DHT22;14508;50.924;11.600;2022-09-12T07:42:53;14.20;99.90
26954;DHT22;14508;50.924;11.600;2022-09-12T07:45:20;14.30;99.90
26954;DHT22;14508;50.924;11.600;2022-09-12T07:47:47;14.40;99.90
26954;DHT22;14508;50.924;11.600;2022-09-12T07:50:14;14.40;99.90
26954;DHT22;14508;50.924;11.600;2022-09-12T07:52:42;14.40;99.90
26954;DHT22;14508;50.924;11.600;2022-09-12T07:55:09;14.40;99.90
26954;DHT22;14508;50.924;11.600;2022-09-12T07:57:36;14.50;99.90
26954;DHT22;14508;50.924;11.600;2022-09-12T08:00:04;14.50;99.90
26954;DHT22;14508;50.924;11.600;2022-09-12T08:02:38;14.60;99.90
26954;DHT22;14508;50.924;11.600;2022-09-12T08:05:05;14.60;99.90
26954;DHT22;14508;50.924;11.600;2022-09-12T08:07:31;14.70;99.90
26954;DHT22;14508;50.924;11.600;2022-09-12T08:10:00;14.80;99.90
26954;DHT22;14508;50.924;11.600;2022-09-12T08:12:27;14.80;99.90
26954;DHT22;14508;50.924;11.600;2022-09-12T08:14:54;14.90;99.90
26954;DHT22;14508;50.924;11.600;2022-09-12T08:17:21;14.90;99.90
26954;DHT22;14508;50.924;11.600;2022-09-12T08:19:48;15.00;99.90
26954;DHT22;14508;50.924;11.600;2022-09-12T08:22:15;15.00;99.90
26954;DHT22;14508;50.924;11.600;2022-09-12T08:24:43;15.00;99.90
26954;DHT22;14508;50.924;11.600;2022-09-12T08:27:11;15.00;99.90
26954;DHT22;14508;50.924;11.600;2022-09-12T08:29:37;15.10;99.90
26954;DHT22;14508;50.924;11.600;2022-09-12T08:32:04;15.20;99.90
26954;DHT22;14508;50.924;11.600;2022-09-12T08:34:31;15.20;99.90
26954;DHT22;14508;50.924;11.600;2022-09-12T08:36:58;15.30;99.90
26954;DHT22;14508;50.924;11.600;2022-09-12T08:39:24;15.30;99.90
26954;DHT22;14508;50.924;11.600;2022-09-12T08:41:58;15.30;99.90
26954;DHT22;14508;50.924;11.600;2022-09-12T08:44:49;15.40;99.90
26954;DHT22;14508;50.924;11.600;2022-09-12T08:47:23;15.40;99.90
26954;DHT22;14508;50.924;11.600;2022-09-12T08:50:05;15.30;99.90
26954;DHT22;14508;50.924;11.600;2022-09-12T08:52:38;15.30;99.90
26954;DHT22;14508;50.924;11.600;2022-09-12T08:55:25;15.40;99.90
26954;DHT22;14508;50.924;11.600;2022-09-12T08:57:53;15.50;99.90
26954;DHT22;14508;50.924;11.600;2022-09-12T09:00:21;15.70;99.90
26954;DHT22;14508;50.924;11.600;2022-09-12T09:03:08;15.80;99.90
26954;DHT22;14508;50.924;11.600;2022-09-12T09:05:47;15.90;99.90
26954;DHT22;14508;50.924;11.600;2022-09-12T09:08:33;16.00;99.90
26954;DHT22;14508;50.924;11.600;2022-09-12T09:11:12;16.20;99.90
26954;DHT22;14508;50.924;11.600;2022-09-12T09:13:51;16.40;99.90
26954;DHT22;14508;50.924;11.600;2022-09-12T09:16:41;16.50;99.90
26954;DHT22;14508;50.924;11.600;2022-09-12T09:19:12;16.60;99.90
26954;DHT22;14508;50.924;11.600;2022-09-12T09:21:44;16.60;99.90
26954;DHT22;14508;50.924;11.600;2022-09-12T09:24:15;16.70;99.90
26954;DHT22;14508;50.924;11.600;2022-09-12T09:26:48;16.80;99.90
26954;DHT22;14508;50.924;11.600;2022-09-12T09:29:20;16.80;99.90
26954;DHT22;14508;50.924;11.600;2022-09-12T09:31:52;16.90;99.90
26954;DHT22;14508;50.924;11.600;2022-09-12T09:34:23;16.90;99.90
26954;DHT22;14508;50.924;11.600;2022-09-12T09:36:51;16.90;99.90
26954;DHT22;14508;50.924;11.600;2022-09-12T09:39:33;17.00;99.90
26954;DHT22;14508;50.924;11.600;2022-09-12T09:42:18;17.00;99.90
26954;DHT22;14508;50.924;11.600;2022-09-12T09:44:48;17.00;99.90
26954;DHT22;14508;50.924;11.600;2022-09-12T09:47:19;17.10;99.90
26954;DHT22;14508;50.924;11.600;2022-09-12T09:49:46;17.20;99.90
26954;DHT22;14508;50.924;11.600;2022-09-12T09:52:23;17.30;99.90
26954;DHT22;14508;50.924;11.600;2022-09-12T09:54:53;17.40;99.90
26954;DHT22;14508;50.924;11.600;2022-09-12T09:57:39;17.40;99.90
26954;DHT22;14508;50.924;11.600;2022-09-12T10:00:22;17.60;99.90
26954;DHT22;14508;50.924;11.600;2022-09-12T10:03:04;17.70;99.90
26954;DHT22;14508;50.924;11.600;2022-09-12T10:05:33;17.70;99.90
26954;DHT22;14508;50.924;11.600;2022-09-12T10:08:02;17.70;99.90
26954;DHT22;14508;50.924;11.600;2022-09-12T10:10:31;17.90;99.90
26954;DHT22;14508;50.924;11.600;2022-09-12T10:13:08;18.00;99.90
26954;DHT22;14508;50.924;11.600;2022-09-12T10:15:35;18.20;99.90
26954;DHT22;14508;50.924;11.600;2022-09-12T10:18:04;18.30;99.90
26954;DHT22;14508;50.924;11.600;2022-09-12T10:20:33;18.50;99.90
26954;DHT22;14508;50.924;11.600;2022-09-12T10:23:02;18.70;99.90
26954;DHT22;14508;50.924;11.600;2022-09-12T10:25:44;18.90;99.90
26954;DHT22;14508;50.924;11.600;2022-09-12T10:28:21;19.10;99.90
26954;DHT22;14508;50.924;11.600;2022-09-12T10:30:52;19.20;99.90
26954;DHT22;14508;50.924;11.600;2022-09-12T10:33:22;19.30;99.90
26954;DHT22;14508;50.924;11.600;2022-09-12T10:35:52;19.20;99.90
26954;DHT22;14508;50.924;11.600;2022-09-12T10:38:22;19.30;99.90
26954;DHT22;14508;50.924;11.600;2022-09-12T10:40:55;19.50;99.90
26954;DHT22;14508;50.924;11.600;2022-09-12T10:43:26;19.60;99.90
26954;DHT22;14508;50.924;11.600;2022-09-12T10:45:56;19.80;99.90
26954;DHT22;14508;50.924;11.600;2022-09-12T10:48:28;20.00;99.90
26954;DHT22;14508;50.924;11.600;2022-09-12T10:50:56;20.10;99.90
26954;DHT22;14508;50.924;11.600;2022-09-12T10:53:24;20.20;99.90
26954;DHT22;14508;50.924;11.600;2022-09-12T10:56:06;20.30;99.90
26954;DHT22;14508;50.924;11.600;2022-09-12T10:58:42;20.40;99.90
26954;DHT22;14508;50.924;11.600;2022-09-12T11:01:23;20.60;99.90
26954;DHT22;14508;50.924;11.600;2022-09-12T11:04:09;20.70;99.90
26954;DHT22;14508;50.924;11.600;2022-09-12T11:06:48;20.90;99.90
26954;DHT22;14508;50.924;11.600;2022-09-12T11:09:23;21.00;99.90
26954;DHT22;14508;50.924;11.600;2022-09-12T11:11:59;21.10;98.60
26954;DHT22;14508;50.924;11.600;2022-09-12T11:14:39;21.10;98.00
26954;DHT22;14508;50.924;11.600;2022-09-12T11:17:21;21.30;95.80
26954;DHT22;14508;50.924;11.600;2022-09-12T11:20:10;21.30;93.30
26954;DHT22;14508;50.924;11.600;2022-09-12T11:23:01;21.30;89.10
26954;DHT22;14508;50.924;11.600;2022-09-12T11:25:39;21.30;86.70
26954;DHT22;14508;50.924;11.600;2022-09-12T11:28:25;21.40;86.50
26954;DHT22;14508;50.924;11.600;2022-09-12T11:31:08;21.50;82.10
26954;DHT22;14508;50.924;11.600;2022-09-12T11:33:41;21.60;83.00
26954;DHT22;14508;50.924;11.600;2022-09-12T11:36:21;21.70;82.00
26954;DHT22;14508;50.924;11.600;2022-09-12T11:38:51;21.80;80.60
26954;DHT22;14508;50.924;11.600;2022-09-12T11:41:22;21.80;80.30
26954;DHT22;14508;50.924;11.600;2022-09-12T11:43:55;21.80;80.40
26954;DHT22;14508;50.924;11.600;2022-09-12T11:46:28;21.80;80.40
26954;DHT22;14508;50.924;11.600;2022-09-12T11:48:59;21.70;78.10
26954;DHT22;14508;50.924;11.600;2022-09-12T11:51:32;21.70;76.70
26954;DHT22;14508;50.924;11.600;2022-09-12T11:54:10;21.70;76.40
26954;DHT22;14508;50.924;11.600;2022-09-12T11:56:41;21.80;76.70
26954;DHT22;14508;50.924;11.600;2022-09-12T11:59:11;21.80;75.90
26954;DHT22;14508;50.924;11.600;2022-09-12T12:01:41;21.90;74.60
26954;DHT22;14508;50.924;11.600;2022-09-12T12:04:11;22.00;75.20
26954;DHT22;14508;50.924;11.600;2022-09-12T12:06:47;22.10;74.20
26954;DHT22;14508;50.924;11.600;2022-09-12T12:09:15;22.10;72.50
26954;DHT22;14508;50.924;11.600;2022-09-12T12:11:44;22.20;71.60
26954;DHT22;14508;50.924;11.600;2022-09-12T12:14:16;22.10;71.40
26954;DHT22;14508;50.924;11.600;2022-09-12T12:16:44;22.20;70.40
26954;DHT22;14508;50.924;11.600;2022-09-12T12:19:31;22.20;67.60
26954;DHT22;14508;50.924;11.600;2022-09-12T12:22:13;22.10;66.80
26954;DHT22;14508;50.924;11.600;2022-09-12T12:25:05;22.00;67.10
26954;DHT22;14508;50.924;11.600;2022-09-12T12:27:48;21.90;67.10
26954;DHT22;14508;50.924;11.600;2022-09-12T12:33:51;22.20;67.40
26954;DHT22;14508;50.924;11.600;2022-09-12T12:36:40;22.30;64.40
26954;DHT22;14508;50.924;11.600;2022-09-12T12:46:04;22.30;64.20
26954;DHT22;14508;50.924;11.600;2022-09-12T12:51:55;22.50;63.50
26954;DHT22;14508;50.924;11.600;2022-09-12T12:54:27;22.60;63.20
26954;DHT22;14508;50.924;11.600;2022-09-12T12:57:14;22.70;63.00
26954;DHT22;14508;50.924;11.600;2022-09-12T12:59:46;22.70;61.40
26954;DHT22;14508;50.924;11.600;2022-09-12T13:02:18;22.70;60.70
26954;DHT22;14508;50.924;11.600;2022-09-12T13:04:47;22.70;60.90
26954;DHT22;14508;50.924;11.600;2022-09-12T13:07:24;22.70;61.10
26954;DHT22;14508;50.924;11.600;2022-09-12T13:09:51;22.70;60.10
26954;DHT22;14508;50.924;11.600;2022-09-12T13:12:21;22.80;60.00
26954;DHT22;14508;50.924;11.600;2022-09-12T13:14:52;22.90;59.40
26954;DHT22;14508;50.924;11.600;2022-09-12T13:17:36;22.90;59.40
26954;DHT22;14508;50.924;11.600;2022-09-12T13:20:17;22.90;59.00
26954;DHT22;14508;50.924;11.600;2022-09-12T13:22:46;22.90;58.70
26954;DHT22;14508;50.924;11.600;2022-09-12T13:25:26;22.90;58.80
26954;DHT22;14508;50.924;11.600;2022-09-12T13:28:02;22.90;58.90
26954;DHT22;14508;50.924;11.600;2022-09-12T13:30:30;22.90;59.10
26954;DHT22;14508;50.924;11.600;2022-09-12T13:33:09;22.90;59.30
26954;DHT22;14508;50.924;11.600;2022-09-12T13:35:49;22.90;58.90
26954;DHT22;14508;50.924;11.600;2022-09-12T13:38:27;22.90;59.40
26954;DHT22;14508;50.924;11.600;2022-09-12T13:41:12;22.90;59.00
26954;DHT22;14508;50.924;11.600;2022-09-12T13:43:44;23.00;58.50
26954;DHT22;14508;50.924;11.600;2022-09-12T13:46:16;23.00;58.30
26954;DHT22;14508;50.924;11.600;2022-09-12T13:48:45;23.00;58.20
26954;DHT22;14508;50.924;11.600;2022-09-12T13:51:21;23.00;58.00
26954;DHT22;14508;50.924;11.600;2022-09-12T13:53:50;23.00;57.60
26954;DHT22;14508;50.924;11.600;2022-09-12T13:56:19;23.00;57.80
26954;DHT22;14508;50.924;11.600;2022-09-12T13:58:53;23.10;58.00
26954;DHT22;14508;50.924;11.600;2022-09-12T14:01:22;23.20;58.00
26954;DHT22;14508;50.924;11.600;2022-09-12T14:03:52;23.30;58.20
26954;DHT22;14508;50.924;11.600;2022-09-12T14:06:49;23.40;57.90
26954;DHT22;14508;50.924;11.600;2022-09-12T14:09:22;23.40;57.20
26954;DHT22;14508;50.924;11.600;2022-09-12T14:11:49;23.50;56.80
26954;DHT22;14508;50.924;11.600;2022-09-12T14:14:27;23.40;56.30
26954;DHT22;14508;50.924;11.600;2022-09-12T14:16:56;23.40;55.90
26954;DHT22;14508;50.924;11.600;2022-09-12T14:19:25;23.30;55.60
26954;DHT22;14508;50.924;11.600;2022-09-12T14:21:54;23.30;55.90
26954;DHT22;14508;50.924;11.600;2022-09-12T14:24:21;23.20;56.00
26954;DHT22;14508;50.924;11.600;2022-09-12T14:26:50;23.10;56.60
26954;DHT22;14508;50.924;11.600;2022-09-12T14:29:19;23.00;56.60
26954;DHT22;14508;50.924;11.600;2022-09-12T14:31:59;23.00;56.70
26954;DHT22;14508;50.924;11.600;2022-09-12T14:34:27;23.00;56.90
26954;DHT22;14508;50.924;11.600;2022-09-12T14:36:55;23.00;57.20
26954;DHT22;14508;50.924;11.600;2022-09-12T14:39:27;23.00;56.90
26954;DHT22;14508;50.924;11.600;2022-09-12T14:42:03;23.00;56.20
26954;DHT22;14508;50.924;11.600;2022-09-12T14:44:32;22.90;56.50
26954;DHT22;14508;50.924;11.600;2022-09-12T14:47:10;22.80;56.40
26954;DHT22;14508;50.924;11.600;2022-09-12T14:49:40;22.90;56.20
26954;DHT22;14508;50.924;11.600;2022-09-12T14:52:20;22.80;56.10
26954;DHT22;14508;50.924;11.600;2022-09-12T14:54:55;22.90;56.20
26954;DHT22;14508;50.924;11.600;2022-09-12T14:57:38;22.80;56.30
26954;DHT22;14508;50.924;11.600;2022-09-12T15:00:22;22.80;56.10
26954;DHT22;14508;50.924;11.600;2022-09-12T15:02:49;22.80;56.00
26954;DHT22;14508;50.924;11.600;2022-09-12T15:05:21;22.80;55.90
26954;DHT22;14508;50.924;11.600;2022-09-12T15:07:57;22.80;55.90
26954;DHT22;14508;50.924;11.600;2022-09-12T15:10:27;22.70;55.90
26954;DHT22;14508;50.924;11.600;2022-09-12T15:13:13;22.70;55.90
26954;DHT22;14508;50.924;11.600;2022-09-12T15:15:42;22.60;55.70
26954;DHT22;14508;50.924;11.600;2022-09-12T15:18:09;22.60;55.50
26954;DHT22;14508;50.924;11.600;2022-09-12T15:20:39;22.50;54.60
26954;DHT22;14508;50.924;11.600;2022-09-12T15:23:13;22.50;54.00
26954;DHT22;14508;50.924;11.600;2022-09-12T15:25:41;22.40;53.80
26954;DHT22;14508;50.924;11.600;2022-09-12T15:28:16;22.30;53.90
26954;DHT22;14508;50.924;11.600;2022-09-12T15:30:43;22.30;54.40
26954;DHT22;14508;50.924;11.600;2022-09-12T15:33:10;22.30;55.00
26954;DHT22;14508;50.924;11.600;2022-09-12T15:35:39;22.30;55.50
26954;DHT22;14508;50.924;11.600;2022-09-12T15:38:06;22.40;56.00
26954;DHT22;14508;50.924;11.600;2022-09-12T15:40:33;22.40;56.20
26954;DHT22;14508;50.924;11.600;2022-09-12T15:43:00;22.40;56.20
26954;DHT22;14508;50.924;11.600;2022-09-12T15:45:29;22.40;56.40
26954;DHT22;14508;50.924;11.600;2022-09-12T15:47:56;22.50;56.60
26954;DHT22;14508;50.924;11.600;2022-09-12T15:50:23;22.50;56.70
26954;DHT22;14508;50.924;11.600;2022-09-12T15:52:52;22.60;57.00
26954;DHT22;14508;50.924;11.600;2022-09-12T15:55:20;22.60;57.10
26954;DHT22;14508;50.924;11.600;2022-09-12T15:57:47;22.70;57.20